sensor_id;sensor_type;location;lat;lon;timestamp;pressure;altitude;pressure_sealevel;temperature
67501;BMP180;54349;52.528;19.760;2022-12-24T00:01:36;99576.00;;;22.90
67501;BMP180;54349;52.528;19.760;2022-12-24T00:04:05;99578.20;;;22.90
67501;BMP180;54349;52.528;19.760;2022-12-24T00:06:34;99579.20;;;22.90
67501;BMP180;54349;52.528;19.760;2022-12-24T00:09:03;99582.80;;;22.90
67501;BMP180;54349;52.528;19.760;2022-12-24T00:11:35;99583.40;;;22.90
67501;BMP180;54349;52.528;19.760;2022-12-24T00:14:03;99583.80;;;22.90
67501;BMP180;54349;52.528;19.760;2022-12-24T00:16:31;99583.00;;;22.90
67501;BMP180;54349;52.528;19.760;2022-12-24T00:19:00;99580.40;;;22.92
67501;BMP180;54349;52.528;19.760;2022-12-24T00:21:29;99577.00;;;22.94
67501;BMP180;54349;52.528;19.760;2022-12-24T00:23:57;99574.80;;;22.98
67501;BMP180;54349;52.528;19.760;2022-12-24T00:26:26;99574.00;;;22.96
67501;BMP180;54349;52.528;19.760;2022-12-24T00:28:54;99572.60;;;23.00
67501;BMP180;54349;52.528;19.760;2022-12-24T00:31:23;99571.80;;;23.00
67501;BMP180;54349;52.528;19.760;2022-12-24T00:33:53;99573.20;;;23.00
67501;BMP180;54349;52.528;19.760;2022-12-24T00:36:22;99576.00;;;23.00
67501;BMP180;54349;52.528;19.760;2022-12-24T00:38:50;99579.00;;;23.00
67501;BMP180;54349;52.528;19.760;2022-12-24T00:41:19;99574.00;;;23.00
67501;BMP180;54349;52.528;19.760;2022-12-24T00:44:01;99576.00;;;23.00
67501;BMP180;54349;52.528;19.760;2022-12-24T00:46:32;99574.40;;;23.00
67501;BMP180;54349;52.528;19.760;2022-12-24T00:49:01;99575.40;;;23.00
67501;BMP180;54349;52.528;19.760;2022-12-24T00:51:30;99579.20;;;23.00
67501;BMP180;54349;52.528;19.760;2022-12-24T00:53:59;99576.80;;;23.00
67501;BMP180;54349;52.528;19.760;2022-12-24T00:56:28;99577.80;;;22.90
67501;BMP180;54349;52.528;19.760;2022-12-24T00:58:57;99577.40;;;22.90
67501;BMP180;54349;52.528;19.760;2022-12-24T01:01:26;99581.40;;;22.90
67501;BMP180;54349;52.528;19.760;2022-12-24T01:03:55;99578.40;;;22.90
67501;BMP180;54349;52.528;19.760;2022-12-24T01:06:43;99575.40;;;22.80
67501;BMP180;54349;52.528;19.760;2022-12-24T01:09:12;99580.80;;;22.80
67501;BMP180;54349;52.528;19.760;2022-12-24T01:11:40;99583.80;;;22.80
67501;BMP180;54349;52.528;19.760;2022-12-24T01:14:09;99584.60;;;22.74
67501;BMP180;54349;52.528;19.760;2022-12-24T01:16:37;99587.60;;;22.70
67501;BMP180;54349;52.528;19.760;2022-12-24T01:19:06;99581.00;;;22.70
67501;BMP180;54349;52.528;19.760;2022-12-24T01:21:34;99581.00;;;22.70
67501;BMP180;54349;52.528;19.760;2022-12-24T01:24:03;99578.80;;;22.60
67501;BMP180;54349;52.528;19.760;2022-12-24T01:26:31;99580.60;;;22.60
67501;BMP180;54349;52.528;19.760;2022-12-24T01:28:59;99585.40;;;22.60
67501;BMP180;54349;52.528;19.760;2022-12-24T01:31:28;99586.60;;;22.58
67501;BMP180;54349;52.528;19.760;2022-12-24T01:33:56;99586.60;;;22.50
67501;BMP180;54349;52.528;19.760;2022-12-24T01:36:24;99581.00;;;22.50
67501;BMP180;54349;52.528;19.760;2022-12-24T01:38:52;99576.80;;;22.50
67501;BMP180;54349;52.528;19.760;2022-12-24T01:41:23;99576.00;;;22.42
67501;BMP180;54349;52.528;19.760;2022-12-24T01:44:34;99576.60;;;22.40
67501;BMP180;54349;52.528;19.760;2022-12-24T01:47:14;99578.40;;;22.40
67501;BMP180;54349;52.528;19.760;2022-12-24T01:49:51;99580.60;;;22.36
67501;BMP180;54349;52.528;19.760;2022-12-24T01:52:30;99577.20;;;22.30
67501;BMP180;54349;52.528;19.760;2022-12-24T01:55:08;99583.80;;;22.30
67501;BMP180;54349;52.528;19.760;2022-12-24T01:57:56;99580.20;;;22.30
67501;BMP180;54349;52.528;19.760;2022-12-24T02:00:26;99582.20;;;22.20
67501;BMP180;54349;52.528;19.760;2022-12-24T02:02:54;99579.00;;;22.20
67501;BMP180;54349;52.528;19.760;2022-12-24T02:05:30;99582.60;;;22.20
67501;BMP180;54349;52.528;19.760;2022-12-24T02:08:03;99582.40;;;22.20
67501;BMP180;54349;52.528;19.760;2022-12-24T02:10:31;99579.40;;;22.20
67501;BMP180;54349;52.528;19.760;2022-12-24T02:13:00;99575.00;;;22.10
67501;BMP180;54349;52.528;19.760;2022-12-24T02:18:33;99581.40;;;22.10
67501;BMP180;54349;52.528;19.760;2022-12-24T02:36:05;99579.80;;;21.90
67501;BMP180;54349;52.528;19.760;2022-12-24T02:38:48;99588.20;;;21.90
67501;BMP180;54349;52.528;19.760;2022-12-24T02:41:29;99587.40;;;21.90
67501;BMP180;54349;52.528;19.760;2022-12-24T02:44:23;99590.20;;;21.88
67501;BMP180;54349;52.528;19.760;2022-12-24T02:46:53;99586.60;;;21.80
67501;BMP180;54349;52.528;19.760;2022-12-24T02:49:22;99591.60;;;21.80
67501;BMP180;54349;52.528;19.760;2022-12-24T02:51:51;99595.40;;;21.80
67501;BMP180;54349;52.528;19.760;2022-12-24T02:54:19;99599.80;;;21.80
67501;BMP180;54349;52.528;19.760;2022-12-24T02:57:17;99597.40;;;21.80
67501;BMP180;54349;52.528;19.760;2022-12-24T03:00:07;99589.00;;;21.74
67501;BMP180;54349;52.528;19.760;2022-12-24T03:03:10;99592.00;;;21.70
67501;BMP180;54349;52.528;19.760;2022-12-24T03:05:51;99588.80;;;21.70
67501;BMP180;54349;52.528;19.760;2022-12-24T03:11:11;99587.80;;;21.70
67501;BMP180;54349;52.528;19.760;2022-12-24T03:13:42;99588.60;;;21.66
67501;BMP180;54349;52.528;19.760;2022-12-24T03:16:16;99589.40;;;21.60
67501;BMP180;54349;52.528;19.760;2022-12-24T03:18:49;99585.80;;;21.60
67501;BMP180;54349;52.528;19.760;2022-12-24T03:21:31;99588.40;;;21.60
67501;BMP180;54349;52.528;19.760;2022-12-24T03:24:01;99592.40;;;21.60
67501;BMP180;54349;52.528;19.760;2022-12-24T03:26:31;99594.80;;;21.60
67501;BMP180;54349;52.528;19.760;2022-12-24T03:29:05;99598.60;;;21.60
67501;BMP180;54349;52.528;19.760;2022-12-24T03:31:48;99597.20;;;21.50
67501;BMP180;54349;52.528;19.760;2022-12-24T03:34:18;99599.40;;;21.50
67501;BMP180;54349;52.528;19.760;2022-12-24T03:36:47;99601.00;;;21.50
67501;BMP180;54349;52.528;19.760;2022-12-24T03:39:21;99605.40;;;21.50
67501;BMP180;54349;52.528;19.760;2022-12-24T03:41:49;99602.80;;;21.50
67501;BMP180;54349;52.528;19.760;2022-12-24T03:44:19;99605.60;;;21.50
67501;BMP180;54349;52.528;19.760;2022-12-24T03:46:47;99604.20;;;21.44
67501;BMP180;54349;52.528;19.760;2022-12-24T03:49:16;99608.80;;;21.42
67501;BMP180;54349;52.528;19.760;2022-12-24T03:51:44;99607.80;;;21.40
67501;BMP180;54349;52.528;19.760;2022-12-24T03:54:13;99608.00;;;21.40
67501;BMP180;54349;52.528;19.760;2022-12-24T03:56:42;99607.60;;;21.40
67501;BMP180;54349;52.528;19.760;2022-12-24T03:59:10;99602.60;;;21.40
67501;BMP180;54349;52.528;19.760;2022-12-24T04:01:38;99604.80;;;21.40
67501;BMP180;54349;52.528;19.760;2022-12-24T04:04:07;99602.00;;;21.40
67501;BMP180;54349;52.528;19.760;2022-12-24T04:06:35;99602.40;;;21.30
67501;BMP180;54349;52.528;19.760;2022-12-24T04:09:05;99603.20;;;21.30
67501;BMP180;54349;52.528;19.760;2022-12-24T04:11:33;99604.00;;;21.30
67501;BMP180;54349;52.528;19.760;2022-12-24T04:14:01;99605.00;;;21.30
67501;BMP180;54349;52.528;19.760;2022-12-24T04:16:30;99604.60;;;21.30
67501;BMP180;54349;52.528;19.760;2022-12-24T04:18:58;99604.20;;;21.30
67501;BMP180;54349;52.528;19.760;2022-12-24T04:21:27;99606.60;;;21.30
67501;BMP180;54349;52.528;19.760;2022-12-24T04:23:55;99600.20;;;21.30
67501;BMP180;54349;52.528;19.760;2022-12-24T04:26:23;99596.60;;;21.20
67501;BMP180;54349;52.528;19.760;2022-12-24T04:28:52;99594.60;;;21.20
67501;BMP180;54349;52.528;19.760;2022-12-24T04:31:20;99598.20;;;21.20
67501;BMP180;54349;52.528;19.760;2022-12-24T04:33:51;99601.80;;;21.30
67501;BMP180;54349;52.528;19.760;2022-12-24T04:36:20;99601.80;;;21.30
67501;BMP180;54349;52.528;19.760;2022-12-24T04:38:49;99602.40;;;21.30
67501;BMP180;54349;52.528;19.760;2022-12-24T04:41:22;99599.00;;;21.40
67501;BMP180;54349;52.528;19.760;2022-12-24T04:43:54;99591.60;;;21.50
67501;BMP180;54349;52.528;19.760;2022-12-24T04:46:26;99592.00;;;21.50
67501;BMP180;54349;52.528;19.760;2022-12-24T04:48:58;99595.40;;;21.60
67501;BMP180;54349;52.528;19.760;2022-12-24T04:51:27;99594.60;;;21.60
67501;BMP180;54349;52.528;19.760;2022-12-24T04:53:56;99596.00;;;21.70
67501;BMP180;54349;52.528;19.760;2022-12-24T04:56:28;99594.00;;;21.80
67501;BMP180;54349;52.528;19.760;2022-12-24T04:58:59;99599.60;;;21.80
67501;BMP180;54349;52.528;19.760;2022-12-24T05:01:31;99599.80;;;21.80
67501;BMP180;54349;52.528;19.760;2022-12-24T05:04:00;99596.80;;;21.90
67501;BMP180;54349;52.528;19.760;2022-12-24T05:06:31;99602.00;;;21.92
67501;BMP180;54349;52.528;19.760;2022-12-24T05:08:59;99602.60;;;22.00
67501;BMP180;54349;52.528;19.760;2022-12-24T05:11:28;99603.00;;;22.00
67501;BMP180;54349;52.528;19.760;2022-12-24T05:13:56;99603.60;;;22.00
67501;BMP180;54349;52.528;19.760;2022-12-24T05:16:25;99607.00;;;22.06
67501;BMP180;54349;52.528;19.760;2022-12-24T05:18:53;99607.60;;;22.10
67501;BMP180;54349;52.528;19.760;2022-12-24T05:21:25;99610.20;;;22.10
67501;BMP180;54349;52.528;19.760;2022-12-24T05:23:53;99613.60;;;22.18
67501;BMP180;54349;52.528;19.760;2022-12-24T05:26:45;99612.80;;;22.20
67501;BMP180;54349;52.528;19.760;2022-12-24T05:29:16;99614.80;;;22.20
67501;BMP180;54349;52.528;19.760;2022-12-24T05:31:45;99618.80;;;22.20
67501;BMP180;54349;52.528;19.760;2022-12-24T05:34:15;99620.40;;;22.20
67501;BMP180;54349;52.528;19.760;2022-12-24T05:36:44;99619.00;;;22.22
67501;BMP180;54349;52.528;19.760;2022-12-24T05:39:17;99617.60;;;22.28
67501;BMP180;54349;52.528;19.760;2022-12-24T05:41:45;99620.60;;;22.24
67501;BMP180;54349;52.528;19.760;2022-12-24T05:44:14;99619.20;;;22.26
67501;BMP180;54349;52.528;19.760;2022-12-24T05:46:43;99625.80;;;22.30
67501;BMP180;54349;52.528;19.760;2022-12-24T05:49:12;99628.40;;;22.30
67501;BMP180;54349;52.528;19.760;2022-12-24T05:51:41;99631.00;;;22.30
67501;BMP180;54349;52.528;19.760;2022-12-24T05:54:10;99630.20;;;22.30
67501;BMP180;54349;52.528;19.760;2022-12-24T05:56:38;99634.40;;;22.30
67501;BMP180;54349;52.528;19.760;2022-12-24T05:59:07;99637.20;;;22.30
67501;BMP180;54349;52.528;19.760;2022-12-24T06:01:35;99635.00;;;22.30
67501;BMP180;54349;52.528;19.760;2022-12-24T06:04:04;99637.00;;;22.30
67501;BMP180;54349;52.528;19.760;2022-12-24T06:06:33;99636.40;;;22.30
67501;BMP180;54349;52.528;19.760;2022-12-24T06:09:04;99635.80;;;22.30
67501;BMP180;54349;52.528;19.760;2022-12-24T06:11:32;99639.00;;;22.26
67501;BMP180;54349;52.528;19.760;2022-12-24T06:14:01;99644.00;;;22.30
67501;BMP180;54349;52.528;19.760;2022-12-24T06:16:29;99647.40;;;22.28
67501;BMP180;54349;52.528;19.760;2022-12-24T06:18:58;99652.20;;;22.30
67501;BMP180;54349;52.528;19.760;2022-12-24T06:21:27;99651.20;;;22.30
67501;BMP180;54349;52.528;19.760;2022-12-24T06:23:55;99655.00;;;22.30
67501;BMP180;54349;52.528;19.760;2022-12-24T06:26:23;99657.40;;;22.26
67501;BMP180;54349;52.528;19.760;2022-12-24T06:28:51;99657.20;;;22.30
67501;BMP180;54349;52.528;19.760;2022-12-24T06:31:22;99660.60;;;22.30
67501;BMP180;54349;52.528;19.760;2022-12-24T06:33:51;99663.20;;;22.30
67501;BMP180;54349;52.528;19.760;2022-12-24T06:36:23;99666.20;;;22.30
67501;BMP180;54349;52.528;19.760;2022-12-24T06:38:53;99660.80;;;22.30
67501;BMP180;54349;52.528;19.760;2022-12-24T06:41:22;99661.20;;;22.26
67501;BMP180;54349;52.528;19.760;2022-12-24T06:43:52;99665.60;;;22.28
67501;BMP180;54349;52.528;19.760;2022-12-24T06:46:21;99664.60;;;22.30
67501;BMP180;54349;52.528;19.760;2022-12-24T06:48:50;99670.80;;;22.30
67501;BMP180;54349;52.528;19.760;2022-12-24T06:51:19;99675.40;;;22.28
67501;BMP180;54349;52.528;19.760;2022-12-24T06:53:49;99679.80;;;22.30
67501;BMP180;54349;52.528;19.760;2022-12-24T06:56:20;99679.20;;;22.30
67501;BMP180;54349;52.528;19.760;2022-12-24T06:58:48;99684.60;;;22.30
67501;BMP180;54349;52.528;19.760;2022-12-24T07:01:19;99685.40;;;22.30
67501;BMP180;54349;52.528;19.760;2022-12-24T07:03:49;99685.80;;;22.28
67501;BMP180;54349;52.528;19.760;2022-12-24T07:06:23;99691.60;;;22.24
67501;BMP180;54349;52.528;19.760;2022-12-24T07:08:53;99697.20;;;22.28
67501;BMP180;54349;52.528;19.760;2022-12-24T07:11:23;99701.80;;;22.24
67501;BMP180;54349;52.528;19.760;2022-12-24T07:13:52;99700.80;;;22.24
67501;BMP180;54349;52.528;19.760;2022-12-24T07:16:20;99704.40;;;22.20
67501;BMP180;54349;52.528;19.760;2022-12-24T07:18:49;99708.00;;;22.20
67501;BMP180;54349;52.528;19.760;2022-12-24T07:21:17;99713.20;;;22.20
67501;BMP180;54349;52.528;19.760;2022-12-24T07:23:45;99721.40;;;22.20
67501;BMP180;54349;52.528;19.760;2022-12-24T07:26:14;99728.80;;;22.20
67501;BMP180;54349;52.528;19.760;2022-12-24T07:28:42;99731.80;;;22.20
67501;BMP180;54349;52.528;19.760;2022-12-24T07:31:11;99735.40;;;22.20
67501;BMP180;54349;52.528;19.760;2022-12-24T07:33:39;99737.60;;;22.20
67501;BMP180;54349;52.528;19.760;2022-12-24T07:36:20;99736.80;;;22.20
67501;BMP180;54349;52.528;19.760;2022-12-24T07:38:49;99743.00;;;22.20
67501;BMP180;54349;52.528;19.760;2022-12-24T07:41:18;99743.20;;;22.20
67501;BMP180;54349;52.528;19.760;2022-12-24T07:43:46;99751.20;;;22.20
67501;BMP180;54349;52.528;19.760;2022-12-24T07:46:14;99747.00;;;22.20
67501;BMP180;54349;52.528;19.760;2022-12-24T07:48:43;99752.20;;;22.20
67501;BMP180;54349;52.528;19.760;2022-12-24T07:51:11;99754.60;;;22.20
67501;BMP180;54349;52.528;19.760;2022-12-24T07:53:39;99753.60;;;22.20
67501;BMP180;54349;52.528;19.760;2022-12-24T07:56:15;99758.80;;;22.20
67501;BMP180;54349;52.528;19.760;2022-12-24T07:58:44;99766.40;;;22.20
67501;BMP180;54349;52.528;19.760;2022-12-24T08:01:12;99764.80;;;22.20
67501;BMP180;54349;52.528;19.760;2022-12-24T08:03:41;99766.60;;;22.20
67501;BMP180;54349;52.528;19.760;2022-12-24T08:06:10;99766.20;;;22.20
67501;BMP180;54349;52.528;19.760;2022-12-24T08:08:39;99773.20;;;22.20
67501;BMP180;54349;52.528;19.760;2022-12-24T08:11:07;99770.00;;;22.20
67501;BMP180;54349;52.528;19.760;2022-12-24T08:13:36;99769.60;;;22.20
67501;BMP180;54349;52.528;19.760;2022-12-24T08:16:05;99774.80;;;22.20
67501;BMP180;54349;52.528;19.760;2022-12-24T08:18:33;99776.80;;;22.20
67501;BMP180;54349;52.528;19.760;2022-12-24T08:21:02;99777.60;;;22.20
67501;BMP180;54349;52.528;19.760;2022-12-24T08:23:35;99784.00;;;22.20
67501;BMP180;54349;52.528;19.760;2022-12-24T08:26:07;99792.20;;;22.20
67501;BMP180;54349;52.528;19.760;2022-12-24T08:28:36;99797.20;;;22.20
67501;BMP180;54349;52.528;19.760;2022-12-24T08:31:05;99796.60;;;22.20
67501;BMP180;54349;52.528;19.760;2022-12-24T08:33:34;99797.00;;;22.22
67501;BMP180;54349;52.528;19.760;2022-12-24T08:36:03;99801.40;;;22.30
67501;BMP180;54349;52.528;19.760;2022-12-24T08:38:32;99803.20;;;22.30
67501;BMP180;54349;52.528;19.760;2022-12-24T08:41:03;99811.40;;;22.30
67501;BMP180;54349;52.528;19.760;2022-12-24T08:43:31;99820.60;;;22.30
67501;BMP180;54349;52.528;19.760;2022-12-24T08:46:03;99826.60;;;22.28
67501;BMP180;54349;52.528;19.760;2022-12-24T08:48:32;99827.20;;;22.30
67501;BMP180;54349;52.528;19.760;2022-12-24T08:51:09;99830.80;;;22.30
67501;BMP180;54349;52.528;19.760;2022-12-24T08:53:38;99832.20;;;22.30
67501;BMP180;54349;52.528;19.760;2022-12-24T08:56:09;99829.80;;;22.28
67501;BMP180;54349;52.528;19.760;2022-12-24T08:58:38;99837.60;;;22.30
67501;BMP180;54349;52.528;19.760;2022-12-24T09:01:18;99837.80;;;22.30
67501;BMP180;54349;52.528;19.760;2022-12-24T09:03:48;99842.60;;;22.30
67501;BMP180;54349;52.528;19.760;2022-12-24T09:06:17;99844.00;;;22.30
67501;BMP180;54349;52.528;19.760;2022-12-24T09:08:45;99843.60;;;22.30
67501;BMP180;54349;52.528;19.760;2022-12-24T09:11:17;99841.80;;;22.30
67501;BMP180;54349;52.528;19.760;2022-12-24T09:13:46;99846.60;;;22.30
67501;BMP180;54349;52.528;19.760;2022-12-24T09:16:14;99849.20;;;22.30
67501;BMP180;54349;52.528;19.760;2022-12-24T09:18:43;99853.80;;;22.30
67501;BMP180;54349;52.528;19.760;2022-12-24T09:21:14;99860.80;;;22.30
67501;BMP180;54349;52.528;19.760;2022-12-24T09:23:46;99863.00;;;22.30
67501;BMP180;54349;52.528;19.760;2022-12-24T09:26:22;99861.60;;;22.30
67501;BMP180;54349;52.528;19.760;2022-12-24T09:28:52;99863.40;;;22.30
67501;BMP180;54349;52.528;19.760;2022-12-24T09:31:21;99859.20;;;22.30
67501;BMP180;54349;52.528;19.760;2022-12-24T09:33:50;99861.20;;;22.30
67501;BMP180;54349;52.528;19.760;2022-12-24T09:36:19;99866.00;;;22.30
67501;BMP180;54349;52.528;19.760;2022-12-24T09:38:50;99869.80;;;22.30
67501;BMP180;54349;52.528;19.760;2022-12-24T09:46:52;99876.60;;;22.30
67501;BMP180;54349;52.528;19.760;2022-12-24T09:49:35;99877.80;;;22.30
67501;BMP180;54349;52.528;19.760;2022-12-24T09:52:10;99884.20;;;22.30
67501;BMP180;54349;52.528;19.760;2022-12-24T09:54:52;99888.00;;;22.30
67501;BMP180;54349;52.528;19.760;2022-12-24T09:57:30;99889.60;;;22.30
67501;BMP180;54349;52.528;19.760;2022-12-24T10:00:00;99895.40;;;22.30
67501;BMP180;54349;52.528;19.760;2022-12-24T10:02:36;99900.40;;;22.30
67501;BMP180;54349;52.528;19.760;2022-12-24T10:05:13;99900.60;;;22.30
67501;BMP180;54349;52.528;19.760;2022-12-24T10:08:19;99904.60;;;22.30
67501;BMP180;54349;52.528;19.760;2022-12-24T10:10:54;99912.40;;;22.30
67501;BMP180;54349;52.528;19.760;2022-12-24T10:16:33;99920.20;;;22.30
67501;BMP180;54349;52.528;19.760;2022-12-24T10:19:17;99919.80;;;22.30
67501;BMP180;54349;52.528;19.760;2022-12-24T10:22:22;99925.60;;;22.30
67501;BMP180;54349;52.528;19.760;2022-12-24T10:25:08;99929.80;;;22.30
67501;BMP180;54349;52.528;19.760;2022-12-24T10:27:42;99928.60;;;22.30
67501;BMP180;54349;52.528;19.760;2022-12-24T10:30:21;99934.60;;;22.30
67501;BMP180;54349;52.528;19.760;2022-12-24T10:32:53;99934.80;;;22.30
67501;BMP180;54349;52.528;19.760;2022-12-24T10:35:33;99938.80;;;22.30
67501;BMP180;54349;52.528;19.760;2022-12-24T10:38:04;99943.60;;;22.30
67501;BMP180;54349;52.528;19.760;2022-12-24T10:40:44;99948.40;;;22.30
67501;BMP180;54349;52.528;19.760;2022-12-24T10:43:19;99947.40;;;22.30
67501;BMP180;54349;52.528;19.760;2022-12-24T10:45:59;99949.20;;;22.30
67501;BMP180;54349;52.528;19.760;2022-12-24T10:49:01;99947.80;;;22.30
67501;BMP180;54349;52.528;19.760;2022-12-24T10:54:19;99951.80;;;22.30
67501;BMP180;54349;52.528;19.760;2022-12-24T10:57:00;99955.00;;;22.30
67501;BMP180;54349;52.528;19.760;2022-12-24T10:59:49;99961.20;;;22.30
67501;BMP180;54349;52.528;19.760;2022-12-24T11:02:37;99956.00;;;22.30
67501;BMP180;54349;52.528;19.760;2022-12-24T11:05:34;99961.00;;;22.30
67501;BMP180;54349;52.528;19.760;2022-12-24T11:08:16;99961.00;;;22.30
67501;BMP180;54349;52.528;19.760;2022-12-24T11:11:08;99967.80;;;22.30
67501;BMP180;54349;52.528;19.760;2022-12-24T11:16:29;99979.00;;;22.30
67501;BMP180;54349;52.528;19.760;2022-12-24T11:19:03;99983.60;;;22.30
67501;BMP180;54349;52.528;19.760;2022-12-24T11:21:36;99983.80;;;22.30
67501;BMP180;54349;52.528;19.760;2022-12-24T11:26:43;99987.20;;;22.30
67501;BMP180;54349;52.528;19.760;2022-12-24T11:31:45;99986.80;;;22.30
67501;BMP180;54349;52.528;19.760;2022-12-24T11:37:21;99989.60;;;22.34
67501;BMP180;54349;52.528;19.760;2022-12-24T11:39:59;99993.80;;;22.30
67501;BMP180;54349;52.528;19.760;2022-12-24T11:42:37;99995.60;;;22.30
67501;BMP180;54349;52.528;19.760;2022-12-24T11:45:26;99999.80;;;22.30
67501;BMP180;54349;52.528;19.760;2022-12-24T11:47:57;100008.40;;;22.30
67501;BMP180;54349;52.528;19.760;2022-12-24T11:50:33;100013.60;;;22.30
67501;BMP180;54349;52.528;19.760;2022-12-24T11:53:15;100014.80;;;22.30
67501;BMP180;54349;52.528;19.760;2022-12-24T11:58:29;100024.40;;;22.20
67501;BMP180;54349;52.528;19.760;2022-12-24T12:01:46;100025.80;;;22.20
67501;BMP180;54349;52.528;19.760;2022-12-24T12:04:26;100031.40;;;22.14
67501;BMP180;54349;52.528;19.760;2022-12-24T12:07:05;100038.80;;;22.10
67501;BMP180;54349;52.528;19.760;2022-12-24T12:09:49;100044.00;;;22.10
67501;BMP180;54349;52.528;19.760;2022-12-24T12:12:31;100039.80;;;22.10
67501;BMP180;54349;52.528;19.760;2022-12-24T12:15:23;100047.80;;;22.10
67501;BMP180;54349;52.528;19.760;2022-12-24T12:18:10;100046.60;;;22.20
67501;BMP180;54349;52.528;19.760;2022-12-24T12:20:46;100051.80;;;22.20
67501;BMP180;54349;52.528;19.760;2022-12-24T12:23:34;100050.60;;;22.20
67501;BMP180;54349;52.528;19.760;2022-12-24T12:26:14;100053.40;;;22.20
67501;BMP180;54349;52.528;19.760;2022-12-24T12:28:57;100059.00;;;22.20
67501;BMP180;54349;52.528;19.760;2022-12-24T12:31:36;100064.40;;;22.30
67501;BMP180;54349;52.528;19.760;2022-12-24T12:34:31;100075.00;;;22.30
67501;BMP180;54349;52.528;19.760;2022-12-24T12:37:13;100069.60;;;22.30
67501;BMP180;54349;52.528;19.760;2022-12-24T12:39:45;100074.40;;;22.30
67501;BMP180;54349;52.528;19.760;2022-12-24T12:42:37;100080.00;;;22.30
67501;BMP180;54349;52.528;19.760;2022-12-24T12:50:54;100087.60;;;22.30
67501;BMP180;54349;52.528;19.760;2022-12-24T12:56:33;100098.40;;;22.30
67501;BMP180;54349;52.528;19.760;2022-12-24T12:59:20;100104.00;;;22.40
67501;BMP180;54349;52.528;19.760;2022-12-24T13:02:00;100110.80;;;22.34
67501;BMP180;54349;52.528;19.760;2022-12-24T13:11:29;100138.60;;;22.32
67501;BMP180;54349;52.528;19.760;2022-12-24T13:14:13;100142.60;;;22.30
67501;BMP180;54349;52.528;19.760;2022-12-24T13:23:11;100157.20;;;22.30
67501;BMP180;54349;52.528;19.760;2022-12-24T13:25:45;100159.40;;;22.30
67501;BMP180;54349;52.528;19.760;2022-12-24T13:30:53;100161.80;;;22.30
67501;BMP180;54349;52.528;19.760;2022-12-24T13:36:15;100156.60;;;22.30
67501;BMP180;54349;52.528;19.760;2022-12-24T13:38:56;100160.40;;;22.30
67501;BMP180;54349;52.528;19.760;2022-12-24T13:44:19;100180.00;;;22.30
67501;BMP180;54349;52.528;19.760;2022-12-24T13:49:35;100189.20;;;22.30
67501;BMP180;54349;52.528;19.760;2022-12-24T13:58:02;100199.40;;;22.22
67501;BMP180;54349;52.528;19.760;2022-12-24T14:00:50;100205.80;;;22.20
67501;BMP180;54349;52.528;19.760;2022-12-24T14:06:07;100214.60;;;22.20
67501;BMP180;54349;52.528;19.760;2022-12-24T14:08:44;100215.40;;;22.20
67501;BMP180;54349;52.528;19.760;2022-12-24T14:11:18;100218.40;;;22.20
67501;BMP180;54349;52.528;19.760;2022-12-24T14:16:20;100222.00;;;22.20
67501;BMP180;54349;52.528;19.760;2022-12-24T14:19:12;100226.60;;;22.20
67501;BMP180;54349;52.528;19.760;2022-12-24T14:25:18;100233.00;;;22.20
67501;BMP180;54349;52.528;19.760;2022-12-24T14:28:13;100236.40;;;22.20
67501;BMP180;54349;52.528;19.760;2022-12-24T14:30:44;100239.40;;;22.20
67501;BMP180;54349;52.528;19.760;2022-12-24T14:33:34;100241.40;;;22.20
67501;BMP180;54349;52.528;19.760;2022-12-24T14:36:03;100246.60;;;22.20
67501;BMP180;54349;52.528;19.760;2022-12-24T14:38:32;100249.80;;;22.20
67501;BMP180;54349;52.528;19.760;2022-12-24T14:46:47;100255.20;;;22.12
67501;BMP180;54349;52.528;19.760;2022-12-24T14:55:44;100263.00;;;22.20
67501;BMP180;54349;52.528;19.760;2022-12-24T15:01:28;100276.60;;;22.20
67501;BMP180;54349;52.528;19.760;2022-12-24T15:04:15;100274.40;;;22.20
67501;BMP180;54349;52.528;19.760;2022-12-24T15:06:55;100276.40;;;22.18
67501;BMP180;54349;52.528;19.760;2022-12-24T15:09:29;100280.20;;;22.20
67501;BMP180;54349;52.528;19.760;2022-12-24T15:12:02;100282.80;;;22.18
67501;BMP180;54349;52.528;19.760;2022-12-24T15:14:41;100283.80;;;22.20
67501;BMP180;54349;52.528;19.760;2022-12-24T15:17:12;100285.00;;;22.20
67501;BMP180;54349;52.528;19.760;2022-12-24T15:19:48;100289.20;;;22.20
67501;BMP180;54349;52.528;19.760;2022-12-24T15:22:27;100294.40;;;22.20
67501;BMP180;54349;52.528;19.760;2022-12-24T15:24:56;100295.80;;;22.20
67501;BMP180;54349;52.528;19.760;2022-12-24T15:27:31;100301.60;;;22.20
67501;BMP180;54349;52.528;19.760;2022-12-24T15:30:20;100304.60;;;22.20
67501;BMP180;54349;52.528;19.760;2022-12-24T15:32:52;100308.20;;;22.20
67501;BMP180;54349;52.528;19.760;2022-12-24T15:38:29;100312.40;;;22.20
67501;BMP180;54349;52.528;19.760;2022-12-24T15:41:05;100316.60;;;22.16
67501;BMP180;54349;52.528;19.760;2022-12-24T15:43:39;100314.20;;;22.10
67501;BMP180;54349;52.528;19.760;2022-12-24T15:46:07;100324.20;;;22.10
67501;BMP180;54349;52.528;19.760;2022-12-24T15:48:36;100325.60;;;22.10
67501;BMP180;54349;52.528;19.760;2022-12-24T15:51:05;100337.20;;;22.00
67501;BMP180;54349;52.528;19.760;2022-12-24T15:53:40;100338.40;;;22.00
67501;BMP180;54349;52.528;19.760;2022-12-24T15:56:39;100336.00;;;21.90
67501;BMP180;54349;52.528;19.760;2022-12-24T15:59:36;100338.80;;;21.90
67501;BMP180;54349;52.528;19.760;2022-12-24T16:02:42;100338.20;;;21.90
67501;BMP180;54349;52.528;19.760;2022-12-24T16:05:37;100345.20;;;21.80
67501;BMP180;54349;52.528;19.760;2022-12-24T16:13:41;100349.00;;;21.80
67501;BMP180;54349;52.528;19.760;2022-12-24T16:16:14;100351.20;;;21.90
67501;BMP180;54349;52.528;19.760;2022-12-24T16:18:56;100357.80;;;21.90
67501;BMP180;54349;52.528;19.760;2022-12-24T16:21:38;100364.80;;;21.90
67501;BMP180;54349;52.528;19.760;2022-12-24T16:24:23;100370.00;;;21.90
67501;BMP180;54349;52.528;19.760;2022-12-24T16:26:52;100372.80;;;22.00
67501;BMP180;54349;52.528;19.760;2022-12-24T16:29:21;100373.40;;;22.00